Time;durP1;ratioP1;P1;durP2;ratioP2;P2;SDS_P1;SDS_P2;PMS_P1;PMS_P2;Temp;Humidity;BMP_temperature;BMP_pressure;BME280_temperature;BME280_humidity;BME280_pressure;Samples;Min_cycle;Max_cycle;Signal;HPM_P1;HPM_P2
2022/08/07 00:01:55;;;;;;;0.52;0.35;;;;;;;10.72;100.00;102674.56;10543377;28;20059;-75
2022/08/07 00:07:19;;;;;;;0.20;0.20;;;;;;;10.62;100.00;102683.50;10542946;28;20036;-74
2022/08/07 00:12:21;;;;;;;0.00;0.00;;;;;;;10.69;100.00;102682.13;10525758;28;20063;-74
2022/08/07 00:17:28;;;;;;;0.30;0.30;;;;;;;10.63;100.00;102679.22;10525053;28;20123;-74
2022/08/07 00:22:36;;;;;;;;;;;;;;;10.67;100.00;102676.03;10544327;28;20161;-75
2022/08/07 00:27:38;;;;;;;0.20;0.20;;;;;;;10.59;100.00;102675.59;10525175;28;19949;-75
2022/08/07 00:32:56;;;;;;;0.15;0.10;;;;;;;10.44;100.00;102670.50;10524761;28;20050;-75
2022/08/07 00:37:59;;;;;;;0.13;0.08;;;;;;;10.39;100.00;102663.31;10542772;28;20090;-74
2022/08/07 00:43:01;;;;;;;0.08;0.08;;;;;;;10.14;100.00;102662.81;10525449;28;20047;-74
2022/08/07 00:48:03;;;;;;;0.35;0.32;;;;;;;10.36;100.00;102664.00;10525782;28;20040;-74
2022/08/07 00:53:11;;;;;;;0.00;0.00;;;;;;;10.29;100.00;102656.75;10544893;28;20039;-75
2022/08/07 00:58:13;;;;;;;0.25;0.20;;;;;;;10.28;100.00;102654.97;10527532;28;20051;-75
2022/08/07 01:03:15;;;;;;;1.02;0.70;;;;;;;10.14;100.00;102656.75;10526153;28;20059;-75
2022/08/07 01:08:17;;;;;;;1.65;0.82;;;;;;;10.28;100.00;102657.53;10525709;28;20075;-75
2022/08/07 01:13:20;;;;;;;1.52;0.30;;;;;;;10.18;100.00;102652.66;10543315;28;20491;-75
2022/08/07 01:18:23;;;;;;;0.13;0.03;;;;;;;10.04;100.00;102639.91;10543321;28;20032;-75
2022/08/07 01:23:28;;;;;;;0.17;0.10;;;;;;;9.97;100.00;102632.63;10509173;28;20048;-75
2022/08/07 01:28:42;;;;;;;1.65;0.45;;;;;;;9.87;100.00;102635.47;10510423;28;20052;-75
2022/08/07 01:33:49;;;;;;;0.00;0.00;;;;;;;9.99;100.00;102642.22;10508916;28;20041;-75
2022/08/07 01:39:00;;;;;;;2.08;0.30;;;;;;;9.88;100.00;102626.97;10522991;28;20105;-75
2022/08/07 01:44:12;;;;;;;0.32;0.20;;;;;;;9.83;100.00;102631.84;10523892;28;20097;-75
2022/08/07 01:49:15;;;;;;;0.00;0.00;;;;;;;9.72;100.00;102633.81;10523322;28;20135;-75
2022/08/07 01:54:26;;;;;;;0.70;0.28;;;;;;;9.69;100.00;102631.97;10525728;28;20040;-75
2022/08/07 01:59:49;;;;;;;0.32;0.20;;;;;;;9.45;100.00;102626.28;10490260;28;20055;-75
2022/08/07 02:05:02;;;;;;;0.45;0.45;;;;;;;9.49;100.00;102663.38;10526793;28;20051;-75
2022/08/07 02:10:11;;;;;;;1.90;0.45;;;;;;;9.39;100.00;102659.38;10530461;28;20044;-74
2022/08/07 02:15:25;;;;;;;0.17;0.17;;;;;;;9.48;100.00;102653.88;10523055;28;20043;-75
2022/08/07 02:20:30;;;;;;;1.60;0.65;;;;;;;9.25;100.00;102652.53;10540179;28;20097;-75
2022/08/07 02:25:35;;;;;;;0.98;0.63;;;;;;;9.24;100.00;102656.78;10541532;28;20043;-75
2022/08/07 02:31:01;;;;;;;0.30;0.10;;;;;;;9.35;100.00;102650.59;10512280;28;20048;-75
2022/08/07 02:36:25;;;;;;;0.93;0.55;;;;;;;9.18;100.00;102647.03;10545052;28;20487;-75
2022/08/07 02:41:38;;;;;;;0.10;0.10;;;;;;;9.24;100.00;102635.31;10543922;28;20067;-75
2022/08/07 02:46:52;;;;;;;1.42;0.47;;;;;;;9.06;100.00;102641.13;10533068;28;20040;-75
2022/08/07 02:59:01;;;;;;;0.40;0.20;;;;;;;9.16;100.00;102652.84;10544921;28;20056;-74
2022/08/07 03:04:08;;;;;;;0.25;0.15;;;;;;;9.01;100.00;102675.97;10527101;28;20048;-74
2022/08/07 03:09:17;;;;;;;0.00;0.00;;;;;;;9.12;100.00;102681.75;10545824;28;20047;-75
2022/08/07 03:14:41;;;;;;;0.13;0.13;;;;;;;9.00;100.00;102667.38;10552985;28;20055;-75
2022/08/07 03:19:50;;;;;;;0.20;0.20;;;;;;;9.02;100.00;102672.59;10523076;28;20041;-74
2022/08/07 03:24:58;;;;;;;0.45;0.20;;;;;;;8.94;100.00;102676.41;10501558;28;20044;-75
2022/08/07 03:30:04;;;;;;;0.10;0.10;;;;;;;8.91;100.00;102681.34;10527268;28;20040;-75
2022/08/07 03:35:14;;;;;;;0.25;0.10;;;;;;;8.70;100.00;102682.69;10527876;28;20044;-75
2022/08/07 03:40:27;;;;;;;0.20;0.20;;;;;;;8.74;100.00;102678.63;10545271;28;20075;-75
2022/08/07 03:45:37;;;;;;;0.80;0.60;;;;;;;8.78;100.00;102680.59;10544557;28;20048;-75
2022/08/07 03:50:48;;;;;;;0.10;0.10;;;;;;;8.58;100.00;102671.63;10530408;28;20071;-75
2022/08/07 03:56:01;;;;;;;0.10;0.10;;;;;;;8.34;100.00;102670.94;10545703;28;20046;-75
2022/08/07 04:01:10;;;;;;;0.65;0.52;;;;;;;8.65;100.00;102680.63;10529079;28;20044;-75
2022/08/07 04:06:16;;;;;;;0.20;0.20;;;;;;;8.65;100.00;102678.06;10547417;28;20055;-75
2022/08/07 04:11:39;;;;;;;0.80;0.60;;;;;;;8.55;100.00;102672.34;10531168;28;20040;-75
2022/08/07 04:17:01;;;;;;;0.68;0.38;;;;;;;8.71;100.00;102675.88;10544121;28;20066;-75
2022/08/07 04:22:04;;;;;;;0.13;0.13;;;;;;;8.75;100.00;102677.81;10543252;28;20143;-75
2022/08/07 04:27:17;;;;;;;1.00;0.30;;;;;;;8.51;100.00;102675.53;10542896;28;20040;-75
2022/08/07 04:32:29;;;;;;;0.45;0.40;;;;;;;8.69;100.00;102677.44;10541147;28;20051;-75
2022/08/07 04:37:38;;;;;;;0.55;0.47;;;;;;;8.71;100.00;102671.59;10541235;28;20040;-75
2022/08/07 04:43:00;;;;;;;0.47;0.35;;;;;;;8.71;100.00;102668.16;10542344;28;20449;-75
2022/08/07 04:48:36;;;;;;;0.30;0.20;;;;;;;8.62;100.00;102688.13;10496436;28;20040;-75
2022/08/07 04:53:45;;;;;;;0.20;0.10;;;;;;;8.81;100.00;102696.22;10540466;28;20063;-75
2022/08/07 04:59:15;;;;;;;0.80;0.32;;;;;;;9.23;100.00;102710.69;10560713;28;20407;-75
2022/08/07 05:05:01;;;;;;;0.45;0.40;;;;;;;9.45;100.00;102706.03;10543524;28;20036;-75
2022/08/07 05:10:20;;;;;;;0.75;0.40;;;;;;;9.44;100.00;102719.69;10558636;28;20048;-75
2022/08/07 05:15:34;;;;;;;0.40;0.38;;;;;;;9.72;100.00;102734.19;10559076;28;20039;-75
2022/08/07 05:20:45;;;;;;;0.35;0.32;;;;;;;10.06;100.00;102748.13;10540548;28;20044;-75
2022/08/07 05:25:51;;;;;;;0.95;0.52;;;;;;;10.28;100.00;102758.00;10540297;28;20068;-74
2022/08/07 05:31:15;;;;;;;0.13;0.13;;;;;;;10.67;100.00;102768.81;10537580;28;20040;-75
2022/08/07 05:36:22;;;;;;;0.65;0.57;;;;;;;11.00;100.00;102774.03;10555651;28;20032;-75
2022/08/07 05:41:31;;;;;;;0.60;0.60;;;;;;;11.38;100.00;102782.06;10539768;28;20040;-75
2022/08/07 05:46:54;;;;;;;1.67;0.70;;;;;;;11.66;100.00;102779.19;10527061;28;20127;-75
2022/08/07 05:51:58;;;;;;;2.00;1.27;;;;;;;11.89;100.00;102771.75;10548920;28;20068;-75
2022/08/07 05:57:05;;;;;;;1.17;1.00;;;;;;;12.29;100.00;102778.94;10548802;28;20095;-75
2022/08/07 06:02:17;;;;;;;0.43;0.40;;;;;;;12.45;100.00;102775.38;10554994;28;20051;-75
2022/08/07 06:07:32;;;;;;;2.50;0.70;;;;;;;12.61;100.00;102756.34;10552124;28;20040;-75
2022/08/07 06:12:56;;;;;;;3.30;1.00;;;;;;;12.88;100.00;102761.00;10551618;28;20066;-75
2022/08/07 06:17:58;;;;;;;1.83;0.85;;;;;;;13.12;100.00;102750.03;10560020;28;20040;-75
2022/08/07 06:23:08;;;;;;;3.97;1.40;;;;;;;13.28;100.00;102711.06;10561380;28;20046;-76
2022/08/07 06:28:31;;;;;;;1.23;1.10;;;;;;;13.62;100.00;102707.34;10580694;28;20086;-75
2022/08/07 06:33:34;;;;;;;1.88;1.33;;;;;;;13.73;100.00;102689.69;10576741;28;20049;-76
2022/08/07 06:38:37;;;;;;;0.60;0.50;;;;;;;13.96;100.00;102667.28;10575842;28;20456;-76
2022/08/07 06:43:41;;;;;;;0.95;0.60;;;;;;;14.14;100.00;102666.25;10564667;28;20070;-75
2022/08/07 06:48:51;;;;;;;1.50;0.80;;;;;;;14.49;100.00;102658.06;10555088;28;20036;-75
2022/08/07 06:54:02;;;;;;;1.80;0.82;;;;;;;14.72;100.00;102661.56;10553954;28;20044;-75
2022/08/07 06:59:31;;;;;;;2.38;0.98;;;;;;;15.17;100.00;102624.22;10531094;28;20036;-76
2022/08/07 07:04:55;;;;;;;2.17;1.17;;;;;;;15.54;100.00;102620.28;10540131;28;20044;-75
2022/08/07 07:09:57;;;;;;;0.50;0.50;;;;;;;16.08;100.00;102615.94;10535588;28;20055;-75
2022/08/07 07:21:54;;;;;;;0.68;0.68;;;;;;;17.83;100.00;102592.78;10569598;28;20036;-75
2022/08/07 07:27:20;;;;;;;0.73;0.65;;;;;;;18.12;100.00;102586.50;10572110;28;20047;-76
2022/08/07 07:32:23;;;;;;;1.83;1.00;;;;;;;18.71;100.00;102580.72;10568596;28;20395;-76
2022/08/07 07:37:27;;;;;;;0.35;0.35;;;;;;;18.77;100.00;102577.34;10548292;28;20107;-75
2022/08/07 07:42:52;;;;;;;1.00;0.70;;;;;;;19.80;100.00;102567.72;10565540;28;20112;-76
2022/08/07 07:47:58;;;;;;;0.57;0.40;;;;;;;19.70;100.00;102565.81;10549004;28;20082;-75
2022/08/07 07:53:01;;;;;;;1.38;0.68;;;;;;;20.32;100.00;102561.44;10553260;28;20049;-76
2022/08/07 07:58:04;;;;;;;0.60;0.35;;;;;;;20.51;100.00;102555.56;10523906;28;20041;-76
2022/08/07 08:03:12;;;;;;;0.45;0.28;;;;;;;20.42;100.00;102555.44;10506028;28;20052;-76
2022/08/07 08:08:35;;;;;;;0.68;0.40;;;;;;;20.64;96.68;102547.81;10552000;28;20040;-76
2022/08/07 08:13:48;;;;;;;0.80;0.50;;;;;;;21.37;100.00;102551.97;10527295;28;20052;-76
2022/08/07 08:18:58;;;;;;;0.17;0.17;;;;;;;21.20;94.29;102557.94;10537288;28;20048;-75
2022/08/07 08:29:54;;;;;;;0.45;0.32;;;;;;;22.10;88.11;102548.00;10556799;28;20071;-75
2022/08/07 08:34:58;;;;;;;0.08;0.08;;;;;;;21.99;87.04;102549.72;10547073;28;20511;-76
2022/08/07 08:40:01;;;;;;;0.77;0.25;;;;;;;22.53;93.30;102538.53;10549862;28;20050;-76
2022/08/07 08:45:15;;;;;;;0.75;0.47;;;;;;;22.55;81.20;102534.16;10528550;28;20044;-76
2022/08/07 08:50:20;;;;;;;0.63;0.55;;;;;;;23.36;77.03;102529.81;10532757;28;20165;-76
2022/08/07 08:55:55;;;;;;;0.32;0.20;;;;;;;22.77;72.11;102535.09;10512480;28;20562;-75
2022/08/07 09:01:26;;;;;;;0.08;0.08;;;;;;;22.94;74.61;102535.09;10503089;28;20052;-76
2022/08/07 09:06:44;;;;;;;0.00;0.00;;;;;;;22.70;63.91;102534.19;10532358;28;20116;-76
2022/08/07 09:11:53;;;;;;;0.17;0.13;;;;;;;23.59;68.76;102533.28;10535820;28;20076;-76
2022/08/07 09:17:28;;;;;;;0.00;0.00;;;;;;;23.51;60.94;102528.91;10483564;28;20037;-75
2022/08/07 09:23:21;;;;;;;0.10;0.10;;;;;;;23.60;65.33;102534.16;10492912;28;20041;-76
2022/08/07 09:28:51;;;;;;;0.20;0.10;;;;;;;23.87;63.49;102527.03;10502853;28;20384;-76
2022/08/07 09:34:21;;;;;;;0.75;0.75;;;;;;;24.15;59.21;102532.22;10556903;28;20040;-76
2022/08/07 09:39:53;;;;;;;0.00;0.00;;;;;;;24.30;64.29;102515.44;10557447;28;20058;-76
2022/08/07 09:45:05;;;;;;;0.00;0.00;;;;;;;23.93;56.42;102516.53;10520372;28;20518;-77
2022/08/07 09:50:53;;;;;;;0.00;0.00;;;;;;;23.80;58.28;102514.78;10541423;28;20066;-76
2022/08/07 09:56:46;;;;;;;0.70;0.70;;;;;;;24.26;52.63;102498.78;10507480;28;20055;-76
2022/08/07 10:02:10;;;;;;;0.65;0.45;;;;;;;23.84;56.82;102501.59;10536835;28;20048;-77
2022/08/07 10:07:47;;;;;;;0.65;0.25;;;;;;;24.16;51.34;102497.97;10537780;28;20036;-76
2022/08/07 10:12:58;;;;;;;0.10;0.10;;;;;;;24.21;53.64;102492.69;10552204;28;20063;-76
2022/08/07 10:18:07;;;;;;;0.00;0.00;;;;;;;24.80;50.05;102484.38;10525520;28;20445;-76
2022/08/07 10:23:28;;;;;;;0.00;0.00;;;;;;;24.42;52.05;102483.78;10552908;28;20046;-75
2022/08/07 10:29:11;;;;;;;0.15;0.10;;;;;;;24.00;53.33;102480.50;10538968;28;20028;-76
2022/08/07 10:34:57;;;;;;;0.30;0.30;;;;;;;24.44;50.39;102470.59;10508339;28;20048;-76
2022/08/07 10:40:20;;;;;;;0.10;0.08;;;;;;;24.73;49.08;102464.25;10503062;28;20502;-73
2022/08/07 10:45:35;;;;;;;0.30;0.30;;;;;;;25.76;52.62;102457.88;10540535;28;20050;-72
2022/08/07 10:50:53;;;;;;;0.35;0.20;;;;;;;25.37;45.26;102456.56;10529721;28;20407;-74
2022/08/07 10:56:42;;;;;;;0.10;0.10;;;;;;;25.16;49.38;102455.91;10504962;28;20190;-74
2022/08/07 11:01:52;;;;;;;0.30;0.30;;;;;;;24.56;51.50;102441.50;10375529;28;20140;-74
2022/08/07 11:07:25;;;;;;;0.00;0.00;;;;;;;24.26;50.44;102440.00;10378611;28;20057;-74
2022/08/07 11:12:56;;;;;;;0.75;0.35;;;;;;;23.71;56.41;102436.75;10384363;28;20056;-74
2022/08/07 11:18:14;;;;;;;0.00;0.00;;;;;;;22.96;65.21;102426.44;10484031;28;20044;-76
2022/08/07 11:23:21;;;;;;;0.10;0.03;;;;;;;23.16;63.29;102429.91;10535310;28;20147;-76
2022/08/07 11:28:48;;;;;;;0.90;0.10;;;;;;;22.58;66.03;102423.88;10492793;28;20093;-76
2022/08/07 11:34:08;;;;;;;0.25;0.20;;;;;;;22.84;67.64;102420.34;10538508;28;20491;-76
2022/08/07 11:46:42;;;;;;;0.00;0.00;;;;;;;23.73;51.84;102408.69;10533736;28;20036;-76
2022/08/07 11:52:04;;;;;;;0.28;0.20;;;;;;;24.27;58.39;102399.59;10539712;28;20051;-76
2022/08/07 11:57:30;;;;;;;0.75;0.43;;;;;;;23.11;50.28;102404.53;10511769;28;20040;-77
2022/08/07 12:03:03;;;;;;;0.50;0.40;;;;;;;25.23;56.67;102394.28;10481461;28;20040;-76
2022/08/07 12:08:57;;;;;;;0.22;0.20;;;;;;;24.61;52.41;102394.03;10513119;28;20039;-76
2022/08/07 12:14:28;;;;;;;0.10;0.10;;;;;;;24.80;47.79;102378.97;10504788;28;20126;-76
2022/08/07 12:19:50;;;;;;;0.45;0.22;;;;;;;25.38;48.75;102373.88;10502031;28;20131;-76
2022/08/07 12:25:51;;;;;;;1.85;0.20;;;;;;;25.25;47.94;102384.59;10503414;28;20430;-76
2022/08/07 12:31:27;;;;;;;0.82;0.40;;;;;;;25.32;45.89;102372.19;10512399;28;20050;-76
2022/08/07 12:36:52;;;;;;;0.00;0.00;;;;;;;25.38;47.33;102366.91;10540188;28;20406;-75
2022/08/07 12:41:55;;;;;;;1.08;0.30;;;;;;;25.15;42.63;102368.03;10535858;28;20543;-77
2022/08/07 12:47:08;;;;;;;0.00;0.00;;;;;;;25.19;45.54;102371.50;10521699;28;20117;-76
2022/08/07 12:52:14;;;;;;;0.90;0.40;;;;;;;23.93;44.20;102369.13;10505218;28;20047;-76
2022/08/07 12:57:29;;;;;;;0.55;0.15;;;;;;;24.91;47.88;102358.59;10512625;28;20044;-76
2022/08/07 13:09:53;;;;;;;0.20;0.20;;;;;;;24.77;50.77;102342.06;10507766;28;20044;-74
2022/08/07 13:15:29;;;;;;;0.03;0.03;;;;;;;24.98;44.99;102339.19;10522186;28;20128;-75
2022/08/07 13:20:32;;;;;;;0.28;0.15;;;;;;;24.93;43.43;102343.66;10513231;28;20143;-75
2022/08/07 13:25:45;;;;;;;0.10;0.10;;;;;;;25.07;41.01;102330.31;10508786;28;20040;-76
2022/08/07 13:31:09;;;;;;;0.00;0.00;;;;;;;25.37;48.67;102328.19;10513094;28;20048;-75
2022/08/07 13:37:10;;;;;;;0.73;0.13;;;;;;;24.61;38.41;102331.66;10518636;28;20036;-74
2022/08/07 13:42:24;;;;;;;0.10;0.10;;;;;;;24.99;43.19;102317.22;10574684;28;20387;-74
2022/08/07 13:47:29;;;;;;;0.15;0.15;;;;;;;25.05;42.98;102320.69;10530489;28;20479;-74
2022/08/07 13:52:53;;;;;;;0.00;0.00;;;;;;;25.27;41.94;102318.63;10496780;28;20036;-74
2022/08/07 14:03:38;;;;;;;0.00;0.00;;;;;;;24.71;40.06;102316.69;10520972;28;20071;-74
2022/08/07 14:09:03;;;;;;;0.00;0.00;;;;;;;24.36;38.85;102316.13;10515428;28;20047;-74
2022/08/07 14:14:11;;;;;;;0.17;0.10;;;;;;;24.59;41.05;102311.50;10517576;28;20064;-74
2022/08/07 14:19:17;;;;;;;0.10;0.10;;;;;;;23.67;43.55;102309.63;10523269;28;20491;-74
2022/08/07 14:24:44;;;;;;;0.00;0.00;;;;;;;24.42;50.90;102295.88;10539881;28;20502;-73
2022/08/07 14:29:52;;;;;;;0.03;0.03;;;;;;;23.95;49.04;102304.16;10523859;28;20059;-73
2022/08/07 14:35:19;;;;;;;0.00;0.00;;;;;;;24.02;46.21;102300.59;10519641;28;20437;-74
2022/08/07 14:40:45;;;;;;;0.00;0.00;;;;;;;24.20;47.46;102296.06;10545981;28;20512;-74
2022/08/07 14:45:56;;;;;;;0.00;0.00;;;;;;;24.07;42.10;102293.56;10527900;28;20036;-73
2022/08/07 14:51:02;;;;;;;0.00;0.00;;;;;;;24.42;44.44;102287.97;10510489;28;20048;-74
2022/08/07 14:56:07;;;;;;;0.20;0.10;;;;;;;24.57;49.92;102287.81;10517672;28;20721;-74
2022/08/07 15:01:16;;;;;;;0.00;0.00;;;;;;;24.70;43.03;102283.31;10534563;28;20044;-74
2022/08/07 15:06:39;;;;;;;0.03;0.03;;;;;;;24.66;41.67;102277.22;10523547;28;20060;-73
2022/08/07 15:11:59;;;;;;;0.10;0.10;;;;;;;24.32;42.50;102277.50;10562540;28;20040;-75
2022/08/07 15:17:12;;;;;;;0.63;0.45;;;;;;;24.15;42.54;102280.31;10527138;28;20554;-74
2022/08/07 15:22:18;;;;;;;0.10;0.10;;;;;;;24.36;47.65;102273.97;10517156;28;20048;-74
2022/08/07 15:27:40;;;;;;;0.00;0.00;;;;;;;24.78;45.93;102270.03;10513533;28;20040;-74
2022/08/07 15:33:04;;;;;;;0.10;0.03;;;;;;;24.91;45.69;102262.84;10521094;28;20040;-74
2022/08/07 15:38:37;;;;;;;0.80;0.03;;;;;;;24.43;43.24;102263.38;10534635;28;20502;-74
2022/08/07 15:44:29;;;;;;;0.13;0.13;;;;;;;24.43;39.75;102263.38;10531128;28;20492;-74
2022/08/07 15:49:34;;;;;;;0.77;0.55;;;;;;;24.73;45.76;102249.00;10534505;28;20043;-74
2022/08/07 15:54:59;;;;;;;0.00;0.00;;;;;;;24.37;44.12;102252.03;10532217;28;20088;-74
2022/08/07 16:00:04;;;;;;;0.75;0.15;;;;;;;23.61;47.01;102251.78;10515123;28;20453;-74
2022/08/07 16:05:11;;;;;;;0.70;0.22;;;;;;;23.57;49.05;102250.03;10509582;28;20133;-74
2022/08/07 16:10:29;;;;;;;;;;;;;;;23.73;49.85;102246.41;10515765;28;20043;-74
2022/08/07 16:15:39;;;;;;;0.10;0.10;;;;;;;23.62;54.74;102240.38;10512065;28;20423;-74
2022/08/07 16:21:19;;;;;;;0.00;0.00;;;;;;;23.64;55.13;102237.72;10513380;28;20048;-73
2022/08/07 16:26:54;;;;;;;0.00;0.00;;;;;;;23.11;54.82;102236.28;10530729;28;20035;-73
2022/08/07 16:32:05;;;;;;;0.10;0.10;;;;;;;23.27;60.82;102241.50;10514579;28;20121;-74
2022/08/07 16:37:56;;;;;;;0.57;0.32;;;;;;;23.34;56.99;102232.69;10531967;28;20036;-74
2022/08/07 16:43:37;;;;;;;0.25;0.10;;;;;;;23.31;56.96;102232.69;10513615;28;20055;-74
2022/08/07 16:49:33;;;;;;;0.00;0.00;;;;;;;23.47;61.91;102230.81;10530802;28;20052;-73
2022/08/07 16:55:21;;;;;;;0.00;0.00;;;;;;;22.99;60.77;102231.09;10520322;28;20048;-74
2022/08/07 17:01:03;;;;;;;0.13;0.05;;;;;;;22.67;60.48;102234.75;10535117;28;20071;-75
2022/08/07 17:06:11;;;;;;;0.30;0.20;;;;;;;22.60;63.46;102233.88;10512947;28;20045;-75
2022/08/07 17:11:56;;;;;;;0.25;0.20;;;;;;;22.61;64.54;102230.38;10532393;28;20036;-74
2022/08/07 17:17:28;;;;;;;0.10;0.10;;;;;;;22.68;66.99;102233.84;10514700;28;20045;-74
2022/08/07 17:23:00;;;;;;;0.00;0.00;;;;;;;22.73;65.85;102226.84;10519118;28;20446;-75
2022/08/07 17:28:12;;;;;;;0.43;0.40;;;;;;;22.81;66.07;102230.31;10495920;28;20036;-74
2022/08/07 17:33:25;;;;;;;0.00;0.00;;;;;;;22.59;65.64;102236.53;10536220;28;20044;-74
2022/08/07 17:39:07;;;;;;;0.20;0.10;;;;;;;22.52;65.32;102240.03;10519297;28;20039;-74
2022/08/07 17:44:23;;;;;;;0.20;0.05;;;;;;;22.31;62.62;102231.28;10544111;28;20043;-75
2022/08/07 17:50:01;;;;;;;0.52;0.20;;;;;;;22.13;63.05;102242.69;10528717;28;20032;-74
2022/08/07 17:55:09;;;;;;;0.55;0.40;;;;;;;22.00;64.22;102252.34;10501188;28;20044;-74
2022/08/07 18:00:24;;;;;;;0.10;0.10;;;;;;;21.83;67.53;102244.44;10519838;28;20525;-73
2022/08/07 18:06:02;;;;;;;0.10;0.10;;;;;;;21.59;66.05;102246.22;10537956;28;20375;-75
2022/08/07 18:11:18;;;;;;;0.10;0.10;;;;;;;21.40;67.33;102261.00;10540237;28;20052;-74
2022/08/07 18:17:04;;;;;;;0.10;0.10;;;;;;;21.23;64.47;102260.91;10532385;28;20043;-74
2022/08/07 18:22:20;;;;;;;0.10;0.10;;;;;;;20.99;67.04;102270.47;10515003;28;20043;-74
2022/08/07 18:27:45;;;;;;;0.00;0.00;;;;;;;20.87;66.65;102266.06;10531929;28;20803;-74
2022/08/07 18:33:26;;;;;;;0.00;0.00;;;;;;;20.53;67.39;102280.66;10521085;28;20055;-74
2022/08/07 18:38:44;;;;;;;0.00;0.00;;;;;;;20.39;67.33;102283.19;10535550;28;20126;-74
2022/08/07 18:44:25;;;;;;;0.38;0.20;;;;;;;20.07;70.39;102281.19;10527605;28;20051;-73
2022/08/07 18:49:38;;;;;;;0.03;0.03;;;;;;;19.96;70.48;102287.22;10520877;28;20400;-73
2022/08/07 18:55:49;;;;;;;0.00;0.00;;;;;;;19.74;75.55;102287.84;10520261;28;20038;-74
2022/08/07 19:01:29;;;;;;;0.20;0.00;;;;;;;19.47;80.41;102289.31;10382678;28;20073;-79
2022/08/07 19:07:03;;;;;;;0.28;0.05;;;;;;;19.17;88.75;102294.19;10528370;28;20085;-75
2022/08/07 19:12:43;;;;;;;0.10;0.10;;;;;;;18.93;88.39;102306.94;10529554;28;20074;-73
2022/08/07 19:18:07;;;;;;;0.00;0.00;;;;;;;18.68;92.72;102293.53;10501795;28;20036;-74
2022/08/07 19:23:23;;;;;;;0.40;0.22;;;;;;;18.44;100.00;102300.13;10502322;28;20059;-75
2022/08/07 19:28:53;;;;;;;0.30;0.10;;;;;;;18.24;100.00;102310.25;10537845;28;20101;-75
2022/08/07 19:34:29;;;;;;;0.10;0.10;;;;;;;18.07;100.00;102317.78;10522877;28;20048;-74
2022/08/07 19:39:37;;;;;;;0.08;0.00;;;;;;;17.73;100.00;102328.44;10543551;28;20040;-75
2022/08/07 19:45:02;;;;;;;0.00;0.00;;;;;;;17.62;100.00;102329.94;10544640;28;20051;-75
2022/08/07 19:50:10;;;;;;;0.10;0.10;;;;;;;17.48;100.00;102334.00;10524798;28;20044;-75
2022/08/07 19:55:32;;;;;;;0.52;0.40;;;;;;;17.20;100.00;102339.53;10553583;28;20148;-75
2022/08/07 20:00:56;;;;;;;0.65;0.28;;;;;;;17.08;100.00;102347.09;10541744;28;20044;-75
2022/08/07 20:06:01;;;;;;;0.03;0.03;;;;;;;17.00;100.00;102354.75;10533913;28;20056;-74
2022/08/07 20:11:10;;;;;;;0.00;0.00;;;;;;;16.81;100.00;102354.28;10526614;28;20548;-75
2022/08/07 20:16:18;;;;;;;0.00;0.00;;;;;;;16.66;100.00;102366.91;10523023;28;20550;-75
2022/08/07 20:21:40;;;;;;;0.00;0.00;;;;;;;16.54;100.00;102364.03;10539121;28;20040;-76
2022/08/07 20:26:51;;;;;;;0.00;0.00;;;;;;;16.58;100.00;102365.84;10502361;28;20036;-75
2022/08/07 20:31:58;;;;;;;0.00;0.00;;;;;;;16.34;100.00;102361.81;10550211;28;20040;-76
2022/08/07 20:37:04;;;;;;;1.40;0.47;;;;;;;16.30;100.00;102365.16;10509573;28;20060;-77
2022/08/07 20:42:10;;;;;;;1.65;0.10;;;;;;;16.24;100.00;102372.81;10510538;28;20059;-76
2022/08/07 20:47:16;;;;;;;0.03;0.03;;;;;;;16.12;100.00;102369.03;10535701;28;20391;-76
2022/08/07 20:52:30;;;;;;;0.00;0.00;;;;;;;16.00;100.00;102372.22;10532961;28;20048;-76
2022/08/07 20:57:57;;;;;;;0.95;0.25;;;;;;;15.94;100.00;102376.34;10503876;28;20044;-79
2022/08/07 21:04:05;;;;;;;0.20;0.03;;;;;;;15.88;100.00;102381.41;10521565;28;20082;-76
2022/08/07 21:09:36;;;;;;;0.10;0.03;;;;;;;15.78;100.00;102381.09;10519569;28;20032;-76
2022/08/07 21:15:04;;;;;;;0.00;0.00;;;;;;;15.68;100.00;102389.47;10525077;28;20562;-77
2022/08/07 21:20:14;;;;;;;0.22;0.20;;;;;;;15.69;100.00;102386.03;10510843;28;20044;-76
2022/08/07 21:26:00;;;;;;;0.10;0.10;;;;;;;15.43;100.00;102391.38;10505986;28;20538;-76
2022/08/07 21:31:13;;;;;;;0.43;0.00;;;;;;;15.44;100.00;102394.84;10515147;28;20040;-76
2022/08/07 21:36:47;;;;;;;0.10;0.10;;;;;;;15.36;100.00;102398.09;10534534;28;20040;-77
2022/08/07 21:42:27;;;;;;;0.10;0.10;;;;;;;15.35;100.00;102398.91;10515499;28;20047;-76
2022/08/07 21:48:02;;;;;;;1.35;0.30;;;;;;;15.35;100.00;102392.84;10523876;28;20075;-76
2022/08/07 21:53:30;;;;;;;0.28;0.28;;;;;;;15.22;100.00;102400.28;10508712;28;20391;-76
2022/08/07 21:59:02;;;;;;;0.05;0.05;;;;;;;15.20;100.00;102406.22;10528394;28;20090;-76
2022/08/07 22:04:11;;;;;;;0.20;0.20;;;;;;;15.00;100.00;102406.50;10543583;28;20123;-76
2022/08/07 22:09:24;;;;;;;0.25;0.25;;;;;;;14.98;100.00;102415.06;10520950;28;20064;-75
2022/08/07 22:14:36;;;;;;;0.47;0.20;;;;;;;14.70;100.00;102414.19;10516388;28;20051;-76
2022/08/07 22:20:13;;;;;;;0.17;0.10;;;;;;;14.76;100.00;102424.75;10537269;28;20054;-76
2022/08/07 22:25:55;;;;;;;0.32;0.22;;;;;;;14.59;100.00;102425.03;10508586;28;20180;-75
2022/08/07 22:31:04;;;;;;;0.25;0.20;;;;;;;14.48;100.00;102423.81;10530391;28;20095;-76
2022/08/07 22:36:28;;;;;;;0.13;0.13;;;;;;;14.47;100.00;102429.81;10527325;28;20054;-76
2022/08/07 22:41:36;;;;;;;0.20;0.20;;;;;;;14.57;100.00;102434.47;10544604;28;20048;-76
2022/08/07 22:47:20;;;;;;;0.25;0.05;;;;;;;14.68;100.00;102446.97;10540987;28;20135;-76
2022/08/07 22:52:46;;;;;;;2.63;0.10;;;;;;;14.57;100.00;102450.03;10539117;28;20050;-76
2022/08/07 22:58:09;;;;;;;0.30;0.10;;;;;;;14.53;100.00;102458.56;10544899;28;20044;-76
2022/08/07 23:03:45;;;;;;;0.43;0.28;;;;;;;14.40;100.00;102461.56;10518004;28;20053;-76
2022/08/07 23:09:14;;;;;;;0.60;0.40;;;;;;;14.39;100.00;102462.38;10532043;28;20471;-76
2022/08/07 23:15:03;;;;;;;0.80;0.10;;;;;;;14.25;100.00;102467.06;10529548;28;20054;-76
2022/08/07 23:20:57;;;;;;;0.10;0.10;;;;;;;14.27;100.00;102470.59;10529022;28;20069;-77
2022/08/07 23:26:21;;;;;;;0.03;0.03;;;;;;;14.16;100.00;102472.81;10492290;28;20052;-75
2022/08/07 23:32:05;;;;;;;0.00;0.00;;;;;;;14.17;100.00;102472.00;10543192;28;20479;-76
2022/08/07 23:37:34;;;;;;;0.13;0.13;;;;;;;14.19;100.00;102472.91;10551468;28;20055;-75
2022/08/07 23:43:05;;;;;;;0.43;0.17;;;;;;;13.98;100.00;102472.13;10523772;28;20052;-76
2022/08/07 23:48:31;;;;;;;0.40;0.10;;;;;;;14.05;100.00;102463.75;10545975;28;20036;-75
2022/08/07 23:53:41;;;;;;;0.10;0.00;;;;;;;13.73;100.00;102471.22;10531003;28;20058;-77
2022/08/07 23:58:58;;;;;;;0.32;0.32;;;;;;;13.69;100.00;102484.88;10523270;28;20487;-77
